createdAt,value
2018-01-11T00:01:15.368Z,10.18
2018-01-11T00:03:44.748Z,10.23
2018-01-11T00:06:13.132Z,10.33
2018-01-11T00:08:41.499Z,10.39
2018-01-11T00:11:09.915Z,10.49
2018-01-11T00:13:38.392Z,10.60
2018-01-11T00:16:06.753Z,10.61
2018-01-11T00:18:35.111Z,10.43
2018-01-11T00:21:03.512Z,10.33
2018-01-11T00:23:31.867Z,10.52
2018-01-11T00:26:00.738Z,10.64
2018-01-11T00:28:29.103Z,10.74
2018-01-11T00:30:57.455Z,10.65
2018-01-11T00:33:25.815Z,10.63
2018-01-11T00:35:54.227Z,10.62
2018-01-11T00:38:22.700Z,10.61
2018-01-11T00:40:51.719Z,10.57
2018-01-11T00:43:20.067Z,10.74
2018-01-11T00:45:48.655Z,10.73
2018-01-11T00:48:17.008Z,10.56
2018-01-11T00:50:45.386Z,10.44
2018-01-11T00:53:13.788Z,10.66
2018-01-11T00:55:42.174Z,10.68
2018-01-11T00:58:10.541Z,10.78
2018-01-11T01:00:38.907Z,10.85
2018-01-11T01:03:07.293Z,10.83
2018-01-11T01:05:35.667Z,10.83
2018-01-11T01:08:04.072Z,10.95
2018-01-11T01:10:32.455Z,10.98
2018-01-11T01:13:00.933Z,10.92
2018-01-11T01:15:29.412Z,10.94
2018-01-11T01:17:57.784Z,10.87
2018-01-11T01:20:26.203Z,11.04
2018-01-11T01:22:55.082Z,11.00
2018-01-11T01:25:23.540Z,10.88
2018-01-11T01:27:51.937Z,11.08
2018-01-11T01:30:20.292Z,11.12
2018-01-11T01:32:48.666Z,11.22
2018-01-11T01:35:17.036Z,11.28
2018-01-11T01:37:45.396Z,11.35
2018-01-11T01:40:13.774Z,11.34
2018-01-11T01:42:42.202Z,11.33
2018-01-11T01:45:10.666Z,11.31
2018-01-11T01:47:39.132Z,11.24
2018-01-11T01:50:07.948Z,11.28
2018-01-11T01:52:36.320Z,11.33
2018-01-11T01:55:04.678Z,11.19
2018-01-11T01:57:33.039Z,11.26
2018-01-11T02:00:01.409Z,11.33
2018-01-11T02:02:29.761Z,11.42
2018-01-11T02:04:58.143Z,11.20
2018-01-11T02:07:26.592Z,11.09
2018-01-11T02:09:54.959Z,10.94
2018-01-11T02:12:23.387Z,10.31
2018-01-11T02:14:51.828Z,10.18
2018-01-11T02:17:20.320Z,10.50
2018-01-11T02:19:48.682Z,10.75
2018-01-11T02:22:17.043Z,10.47
2018-01-11T02:24:45.408Z,10.66
2018-01-11T02:27:13.825Z,10.73
2018-01-11T02:29:42.859Z,10.81
2018-01-11T02:32:11.699Z,10.72
2018-01-11T02:34:40.059Z,10.77
2018-01-11T02:37:08.424Z,10.62
2018-01-11T02:39:36.838Z,10.43
2018-01-11T02:42:05.215Z,10.44
2018-01-11T02:44:33.597Z,10.04
2018-01-11T02:47:01.971Z,10.17
2018-01-11T02:49:30.353Z,10.22
2018-01-11T02:51:59.278Z,10.44
2018-01-11T02:54:27.644Z,10.53
2018-01-11T02:56:56.004Z,10.60
2018-01-11T02:59:24.378Z,10.61
2018-01-11T03:01:52.759Z,10.64
2018-01-11T03:04:21.239Z,10.65
2018-01-11T03:06:49.620Z,10.64
2018-01-11T03:09:18.050Z,10.62
2018-01-11T03:11:46.816Z,10.71
2018-01-11T03:14:15.267Z,10.47
2018-01-11T03:16:43.620Z,10.73
2018-01-11T03:19:12.025Z,10.83
2018-01-11T03:21:40.400Z,10.77
2018-01-11T03:24:08.781Z,10.78
2018-01-11T03:26:37.136Z,10.79
2018-01-11T03:29:06.032Z,10.76
2018-01-11T03:31:34.412Z,10.51
2018-01-11T03:34:02.783Z,10.74
2018-01-11T03:36:31.164Z,10.78
2018-01-11T03:38:59.572Z,10.78
2018-01-11T03:41:27.932Z,10.78
2018-01-11T03:43:56.343Z,10.85
2018-01-11T03:46:24.694Z,10.80
2018-01-11T03:48:53.063Z,10.57
2018-01-11T03:51:21.415Z,10.68
2018-01-11T03:53:50.164Z,10.68
2018-01-11T03:56:18.534Z,10.67
2018-01-11T03:58:47.007Z,10.71
2018-01-11T04:01:15.502Z,10.53
2018-01-11T04:03:43.880Z,10.48
2018-01-11T04:06:12.352Z,10.76
2018-01-11T04:08:40.730Z,10.79
2018-01-11T04:11:09.092Z,10.73
2018-01-11T04:13:37.472Z,10.56
2018-01-11T04:16:05.859Z,10.73
2018-01-11T04:18:34.217Z,10.76
2018-01-11T04:21:02.633Z,10.90
2018-01-11T04:23:30.990Z,10.91
2018-01-11T04:25:59.358Z,10.95
2018-01-11T04:28:27.849Z,11.09
2018-01-11T04:30:56.239Z,11.04
2018-01-11T04:33:25.745Z,10.91
2018-01-11T04:35:54.104Z,10.67
2018-01-11T04:38:22.510Z,10.72
2018-01-11T04:40:50.939Z,10.66
2018-01-11T04:43:19.687Z,10.86
2018-01-11T04:45:48.129Z,10.97
2018-01-11T04:48:16.632Z,10.79
2018-01-11T04:50:45.055Z,10.75
2018-01-11T04:53:13.912Z,10.67
2018-01-11T04:55:42.271Z,10.58
2018-01-11T04:58:10.636Z,10.60
2018-01-11T05:00:44.434Z,10.56
2018-01-11T05:03:12.845Z,10.73
2018-01-11T05:05:41.231Z,10.65
2018-01-11T05:08:09.582Z,10.59
2018-01-11T05:10:37.979Z,10.23
2018-01-11T05:13:06.335Z,10.01
2018-01-11T05:15:34.800Z,9.84
2018-01-11T05:18:03.223Z,9.48
2018-01-11T05:20:31.620Z,9.81
2018-01-11T05:23:00.193Z,10.04
2018-01-11T05:25:28.556Z,9.90
2018-01-11T05:27:57.159Z,9.85
2018-01-11T05:30:25.523Z,9.17
2018-01-11T05:32:53.867Z,9.36
2018-01-11T05:35:22.287Z,9.53
2018-01-11T05:37:50.738Z,9.70
2018-01-11T05:40:19.252Z,9.23
2018-01-11T05:42:47.601Z,9.66
2018-01-11T05:45:15.985Z,9.64
2018-01-11T05:47:44.361Z,9.13
2018-01-11T05:50:13.884Z,8.88
2018-01-11T05:52:42.238Z,9.32
2018-01-11T05:55:10.644Z,9.52
2018-01-11T05:57:39.232Z,9.67
2018-01-11T06:00:07.612Z,9.77
2018-01-11T06:02:36.001Z,9.54
2018-01-11T06:05:04.374Z,9.49
2018-01-11T06:07:32.738Z,9.90
2018-01-11T06:10:01.101Z,9.91
2018-01-11T06:12:29.478Z,10.11
2018-01-11T06:14:57.845Z,10.20
2018-01-11T06:17:26.253Z,10.25
2018-01-11T06:19:54.642Z,10.37
2018-01-11T06:22:23.007Z,10.41
2018-01-11T06:24:51.412Z,10.33
2018-01-11T06:27:20.036Z,10.46
2018-01-11T06:29:48.377Z,10.50
2018-01-11T06:32:16.746Z,10.65
2018-01-11T06:34:45.166Z,10.55
2018-01-11T06:37:13.589Z,10.63
2018-01-11T06:39:41.974Z,10.65
2018-01-11T06:42:10.336Z,10.52
2018-01-11T06:44:38.744Z,10.51
2018-01-11T06:47:07.216Z,10.64
2018-01-11T06:49:35.606Z,10.65
2018-01-11T06:52:04.012Z,10.38
2018-01-11T06:54:32.783Z,10.48
2018-01-11T06:57:01.243Z,10.48
2018-01-11T06:59:29.627Z,10.51
2018-01-11T07:01:57.989Z,10.50
2018-01-11T07:04:26.376Z,10.60
2018-01-11T07:06:54.755Z,10.69
2018-01-11T07:09:23.118Z,10.73
2018-01-11T07:11:51.508Z,10.64
2018-01-11T07:14:20.196Z,10.67
2018-01-11T07:16:48.548Z,10.84
2018-01-11T07:19:16.899Z,10.79
2018-01-11T07:21:46.047Z,10.81
2018-01-11T07:24:14.415Z,10.85
2018-01-11T07:26:42.790Z,10.75
2018-01-11T07:29:11.188Z,10.80
2018-01-11T07:31:39.575Z,10.79
2018-01-11T07:34:07.940Z,11.01
2018-01-11T07:36:36.327Z,11.06
2018-01-11T07:39:04.708Z,11.06
2018-01-11T07:41:33.069Z,10.99
2018-01-11T07:44:01.450Z,10.94
2018-01-11T07:46:29.843Z,11.02
2018-01-11T07:48:58.216Z,11.02
2018-01-11T07:51:26.601Z,11.01
2018-01-11T07:53:54.962Z,11.11
2018-01-11T07:56:23.336Z,11.09
2018-01-11T07:58:51.717Z,11.02
2018-01-11T08:01:20.075Z,11.12
2018-01-11T08:03:48.482Z,11.20
2018-01-11T08:06:16.871Z,11.10
2018-01-11T08:08:45.252Z,11.17
2018-01-11T08:11:13.703Z,11.22
2018-01-11T08:13:42.073Z,11.22
2018-01-11T08:16:10.483Z,11.27
2018-01-11T08:18:38.928Z,11.18
2018-01-11T08:21:07.548Z,11.38
2018-01-11T08:23:35.928Z,11.24
2018-01-11T08:26:04.286Z,11.33
2018-01-11T08:28:32.650Z,11.21
2018-01-11T08:31:01.068Z,11.39
2018-01-11T08:33:29.444Z,11.37
2018-01-11T08:35:57.815Z,11.46
2018-01-11T08:38:26.212Z,11.56
2018-01-11T08:40:54.656Z,11.55
2018-01-11T08:43:23.021Z,11.61
2018-01-11T08:45:51.380Z,11.66
2018-01-11T08:48:20.140Z,11.78
2018-01-11T08:50:48.504Z,11.79
2018-01-11T08:53:17.004Z,11.86
2018-01-11T08:55:45.364Z,11.89
2018-01-11T08:58:13.732Z,11.13
2018-01-11T09:00:42.948Z,11.37
2018-01-11T09:03:11.324Z,11.26
2018-01-11T09:05:39.803Z,11.13
2018-01-11T09:08:08.177Z,11.28
2018-01-11T09:10:36.580Z,11.33
2018-01-11T09:13:05.046Z,11.21
2018-01-11T09:15:33.410Z,10.73
2018-01-11T09:18:01.801Z,10.36
2018-01-11T09:20:30.155Z,10.66
2018-01-11T09:22:58.516Z,10.51
2018-01-11T09:25:26.927Z,10.21
2018-01-11T09:27:55.917Z,10.56
2018-01-11T09:30:24.306Z,10.88
2018-01-11T09:32:52.656Z,11.06
2018-01-11T09:35:21.007Z,11.19
2018-01-11T09:37:49.864Z,11.15
2018-01-11T09:40:18.668Z,11.26
2018-01-11T09:42:47.126Z,11.40
2018-01-11T09:45:15.507Z,11.43
2018-01-11T09:47:43.876Z,11.49
2018-01-11T09:50:12.256Z,11.61
2018-01-11T09:52:40.618Z,11.66
2018-01-11T09:55:09.000Z,11.66
2018-01-11T09:57:37.932Z,11.67
2018-01-11T10:00:06.723Z,11.75
2018-01-11T10:02:35.122Z,11.84
2018-01-11T10:05:03.559Z,11.84
2018-01-11T10:07:32.042Z,11.76
2018-01-11T10:10:00.387Z,11.63
2018-01-11T10:12:28.758Z,11.66
2018-01-11T10:14:57.127Z,11.70
2018-01-11T10:17:25.494Z,11.53
2018-01-11T10:19:54.351Z,11.54
2018-01-11T10:22:22.731Z,11.35
2018-01-11T10:24:51.124Z,11.37
2018-01-11T10:27:19.501Z,11.44
2018-01-11T10:29:47.964Z,11.45
2018-01-11T10:32:16.336Z,11.49
2018-01-11T10:34:44.691Z,11.58
2018-01-11T10:37:13.076Z,11.31
2018-01-11T10:39:41.451Z,11.13
2018-01-11T10:42:09.867Z,11.01
2018-01-11T10:44:38.248Z,11.18
2018-01-11T10:47:06.611Z,11.21
2018-01-11T10:49:34.964Z,11.00
2018-01-11T10:52:03.388Z,10.77
2018-01-11T10:54:31.853Z,10.94
2018-01-11T10:57:00.243Z,11.00
2018-01-11T10:59:28.597Z,11.03
2018-01-11T11:02:02.411Z,11.14
2018-01-11T11:04:30.808Z,10.84
2018-01-11T11:06:59.274Z,10.94
2018-01-11T11:09:27.754Z,10.98
2018-01-11T11:11:56.236Z,10.93
2018-01-11T11:14:24.604Z,10.77
2018-01-11T11:16:52.977Z,10.95
2018-01-11T11:19:21.379Z,10.70
2018-01-11T11:21:49.861Z,10.93
2018-01-11T11:24:18.251Z,10.32
2018-01-11T11:26:46.621Z,10.11
2018-01-11T11:29:15.008Z,10.43
2018-01-11T11:31:43.370Z,10.38
2018-01-11T11:34:11.736Z,10.52
2018-01-11T11:36:40.087Z,10.66
2018-01-11T11:39:08.464Z,10.82
2018-01-11T11:41:36.820Z,10.94
2018-01-11T11:44:05.572Z,11.05
2018-01-11T11:46:34.056Z,11.20
2018-01-11T11:49:02.435Z,11.08
2018-01-11T11:51:30.818Z,10.98
2018-01-11T11:53:59.199Z,11.09
2018-01-11T11:56:27.678Z,11.05
2018-01-11T11:58:56.052Z,11.15
2018-01-11T12:01:24.404Z,11.26
2018-01-11T12:03:52.772Z,11.46
2018-01-11T12:06:21.136Z,11.45
2018-01-11T12:08:49.915Z,11.70
2018-01-11T12:11:18.681Z,11.75
2018-01-11T12:13:47.139Z,11.87
2018-01-11T12:16:15.523Z,11.84
2018-01-11T12:18:43.905Z,12.11
2018-01-11T12:21:12.353Z,12.13
2018-01-11T12:23:40.720Z,12.14
2018-01-11T12:26:09.077Z,12.23
2018-01-11T12:28:37.851Z,12.24
2018-01-11T12:31:06.302Z,12.15
2018-01-11T12:33:34.754Z,12.10
2018-01-11T12:36:03.107Z,12.00
2018-01-11T12:38:31.853Z,12.16
2018-01-11T12:41:00.227Z,12.11
2018-01-11T12:43:28.600Z,12.10
2018-01-11T12:45:56.962Z,12.14
2018-01-11T12:48:27.420Z,12.22
2018-01-11T12:50:55.788Z,12.27
2018-01-11T12:53:24.152Z,12.12
2018-01-11T12:55:52.516Z,12.16
2018-01-11T12:58:21.001Z,11.98
2018-01-11T13:00:49.404Z,12.13
2018-01-11T13:03:17.772Z,12.16
2018-01-11T13:05:46.149Z,12.23
2018-01-11T13:08:14.499Z,12.06
2018-01-11T13:10:42.880Z,11.98
2018-01-11T13:13:11.301Z,11.83
2018-01-11T13:15:39.655Z,11.65
2018-01-11T13:18:08.027Z,11.82
2018-01-11T13:20:36.387Z,11.84
2018-01-11T13:23:04.813Z,11.97
2018-01-11T13:25:33.170Z,11.99
2018-01-11T13:28:01.571Z,11.95
2018-01-11T13:30:29.940Z,12.02
2018-01-11T13:32:58.303Z,12.15
2018-01-11T13:35:26.676Z,12.16
2018-01-11T13:37:55.030Z,12.14
2018-01-11T13:40:23.798Z,11.87
2018-01-11T13:42:52.748Z,11.81
2018-01-11T13:45:21.108Z,11.74
2018-01-11T13:47:49.488Z,11.79
2018-01-11T13:50:17.860Z,11.82
2018-01-11T13:52:46.287Z,11.99
2018-01-11T13:55:14.654Z,11.95
2018-01-11T13:57:43.238Z,11.93
2018-01-11T14:00:11.628Z,12.10
2018-01-11T14:02:40.002Z,11.88
2018-01-11T14:05:08.352Z,11.92
2018-01-11T14:07:36.707Z,11.89
2018-01-11T14:10:05.469Z,12.09
2018-01-11T14:12:33.864Z,12.03
2018-01-11T14:15:02.721Z,11.40
2018-01-11T14:17:31.101Z,11.19
2018-01-11T14:19:59.469Z,11.42
2018-01-11T14:22:27.860Z,11.62
2018-01-11T14:24:56.332Z,11.73
2018-01-11T14:27:24.704Z,11.87
2018-01-11T14:29:53.214Z,11.74
2018-01-11T14:32:21.589Z,11.76
2018-01-11T14:34:49.951Z,11.65
2018-01-11T14:37:18.341Z,11.49
2018-01-11T14:39:46.734Z,11.04
2018-01-11T14:42:15.098Z,11.37
2018-01-11T14:44:43.577Z,11.57
2018-01-11T14:47:11.948Z,11.37
2018-01-11T14:49:40.416Z,11.03
2018-01-11T14:52:08.764Z,11.36
2018-01-11T14:54:37.215Z,11.61
2018-01-11T14:57:05.570Z,11.59
2018-01-11T14:59:33.919Z,11.58
2018-01-11T15:02:02.354Z,11.64
2018-01-11T15:04:30.718Z,11.43
2018-01-11T15:06:59.198Z,11.21
2018-01-11T15:09:27.675Z,11.24
2018-01-11T15:11:56.057Z,11.19
2018-01-11T15:14:24.527Z,11.34
2018-01-11T15:16:52.868Z,11.05
2018-01-11T15:19:21.224Z,11.12
2018-01-11T15:21:49.975Z,10.92
2018-01-11T15:24:18.378Z,10.44
2018-01-11T15:26:46.875Z,9.77
2018-01-11T15:29:15.731Z,9.81
2018-01-11T15:31:44.126Z,10.18
2018-01-11T15:34:12.503Z,10.03
2018-01-11T15:36:40.976Z,10.05
2018-01-11T15:39:09.441Z,10.12
2018-01-11T15:41:37.820Z,10.20
2018-01-11T15:44:06.204Z,10.26
2018-01-11T15:46:34.572Z,10.41
2018-01-11T15:49:02.958Z,10.67
2018-01-11T15:51:31.432Z,10.66
2018-01-11T15:53:59.807Z,10.71
2018-01-11T15:56:28.252Z,10.50
2018-01-11T15:58:56.616Z,10.30
2018-01-11T16:01:25.373Z,10.34
2018-01-11T16:03:53.848Z,10.24
2018-01-11T16:06:22.232Z,10.28
2018-01-11T16:08:50.607Z,10.38
2018-01-11T16:11:19.884Z,10.28
2018-01-11T16:13:48.231Z,10.30
2018-01-11T16:16:16.813Z,10.28
2018-01-11T16:18:45.564Z,10.30
2018-01-11T16:21:13.916Z,10.27
2018-01-11T16:23:42.300Z,10.18
2018-01-11T16:26:10.643Z,9.87
2018-01-11T16:28:39.017Z,9.59
2018-01-11T16:31:07.460Z,9.72
2018-01-11T16:33:35.915Z,9.59
2018-01-11T16:36:04.300Z,9.79
2018-01-11T16:38:32.709Z,9.58
2018-01-11T16:41:01.504Z,9.78
2018-01-11T16:43:30.356Z,9.71
2018-01-11T16:45:58.875Z,9.36
2018-01-11T16:48:27.632Z,8.85
2018-01-11T16:50:55.995Z,9.27
2018-01-11T16:53:24.368Z,9.16
2018-01-11T16:55:52.755Z,9.32
2018-01-11T16:58:21.140Z,9.33
2018-01-11T17:00:49.526Z,9.34
2018-01-11T17:03:17.899Z,9.35
2018-01-11T17:05:46.271Z,9.13
2018-01-11T17:08:14.685Z,9.30
2018-01-11T17:10:43.077Z,9.19
2018-01-11T17:13:11.827Z,9.61
2018-01-11T17:15:40.176Z,9.40
2018-01-11T17:18:08.548Z,9.38
2018-01-11T17:20:36.898Z,9.43
2018-01-11T17:23:05.640Z,9.43
2018-01-11T17:25:34.010Z,9.29
2018-01-11T17:28:02.408Z,9.41
2018-01-11T17:30:30.785Z,9.29
2018-01-11T17:32:59.157Z,9.51
2018-01-11T17:35:27.510Z,9.65
2018-01-11T17:37:55.862Z,9.34
2018-01-11T17:40:24.649Z,9.37
2018-01-11T17:42:53.415Z,9.76
2018-01-11T17:45:21.779Z,9.60
2018-01-11T17:47:50.156Z,9.69
2018-01-11T17:50:18.517Z,9.91
2018-01-11T17:52:46.878Z,10.04
2018-01-11T17:55:15.258Z,9.81
2018-01-11T17:57:43.613Z,9.63
2018-01-11T18:00:12.351Z,9.72
2018-01-11T18:02:40.731Z,9.62
2018-01-11T18:05:09.080Z,9.49
2018-01-11T18:07:37.432Z,9.66
2018-01-11T18:10:06.204Z,9.70
2018-01-11T18:12:34.561Z,9.58
2018-01-11T18:15:02.916Z,9.70
2018-01-11T18:17:31.330Z,9.85
2018-01-11T18:19:59.763Z,9.62
2018-01-11T18:22:28.119Z,9.68
2018-01-11T18:24:56.903Z,9.54
2018-01-11T18:27:25.745Z,9.66
2018-01-11T18:29:54.100Z,9.68
2018-01-11T18:32:22.520Z,9.89
2018-01-11T18:34:50.888Z,9.67
2018-01-11T18:37:19.252Z,9.84
2018-01-11T18:39:47.620Z,9.91
2018-01-11T18:42:16.025Z,9.94
2018-01-11T18:44:44.379Z,9.72
2018-01-11T18:47:12.744Z,9.76
2018-01-11T18:49:41.109Z,9.47
2018-01-11T18:52:09.896Z,9.44
2018-01-11T18:54:38.660Z,9.30
2018-01-11T18:57:07.012Z,9.48
2018-01-11T18:59:35.384Z,9.48
2018-01-11T19:02:03.737Z,9.44
2018-01-11T19:04:32.112Z,9.59
2018-01-11T19:07:00.537Z,9.73
2018-01-11T19:09:28.912Z,9.58
2018-01-11T19:11:57.385Z,9.21
2018-01-11T19:14:25.749Z,9.53
2018-01-11T19:16:54.119Z,9.70
2018-01-11T19:19:22.468Z,9.54
2018-01-11T19:21:51.220Z,9.63
2018-01-11T19:24:19.681Z,9.66
2018-01-11T19:26:48.024Z,9.62
2018-01-11T19:29:16.400Z,9.81
2018-01-11T19:31:44.761Z,9.68
2018-01-11T19:34:13.612Z,9.81
2018-01-11T19:36:41.972Z,9.64
2018-01-11T19:39:10.321Z,9.68
2018-01-11T19:41:39.172Z,9.70
2018-01-11T19:44:07.534Z,9.50
2018-01-11T19:46:35.932Z,9.54
2018-01-11T19:49:04.389Z,9.37
2018-01-11T19:51:32.773Z,9.23
2018-01-11T19:54:01.155Z,9.37
2018-01-11T19:56:29.507Z,9.52
2018-01-11T19:58:57.858Z,9.70
2018-01-11T20:01:26.696Z,9.39
2018-01-11T20:03:55.076Z,9.40
2018-01-11T20:06:23.440Z,9.44
2018-01-11T20:08:51.832Z,9.37
2018-01-11T20:11:20.331Z,9.13
2018-01-11T20:13:48.727Z,9.45
2018-01-11T20:16:17.482Z,9.49
2018-01-11T20:18:45.858Z,9.75
2018-01-11T20:21:14.249Z,9.68
2018-01-11T20:23:42.596Z,9.56
2018-01-11T20:26:10.976Z,9.36
2018-01-11T20:28:39.377Z,9.17
2018-01-11T20:31:07.860Z,9.40
2018-01-11T20:33:36.256Z,9.24
2018-01-11T20:36:04.680Z,9.36
2018-01-11T20:38:33.094Z,9.29
2018-01-11T20:41:01.444Z,9.41
2018-01-11T20:43:29.820Z,9.43
2018-01-11T20:45:58.167Z,9.46
2018-01-11T20:48:27.032Z,9.79
2018-01-11T20:50:55.400Z,9.89
2018-01-11T20:53:23.752Z,9.55
2018-01-11T20:55:52.175Z,9.84
2018-01-11T20:58:20.550Z,9.94
2018-01-11T21:00:48.908Z,10.00
2018-01-11T21:03:17.288Z,9.90
2018-01-11T21:05:45.641Z,9.85
2018-01-11T21:08:14.043Z,9.88
2018-01-11T21:10:42.424Z,9.55
2018-01-11T21:13:10.794Z,9.34
2018-01-11T21:15:39.156Z,9.14
2018-01-11T21:18:07.532Z,9.36
2018-01-11T21:20:35.910Z,9.63
2018-01-11T21:23:04.257Z,9.41
2018-01-11T21:25:32.609Z,9.51
2018-01-11T21:28:00.975Z,9.48
2018-01-11T21:30:29.372Z,9.26
2018-01-11T21:32:57.756Z,9.32
2018-01-11T21:35:26.107Z,9.56
2018-01-11T21:37:54.500Z,9.51
2018-01-11T21:40:22.888Z,9.51
2018-01-11T21:42:51.255Z,9.73
2018-01-11T21:45:19.722Z,9.30
2018-01-11T21:47:48.088Z,9.55
2018-01-11T21:50:16.440Z,9.64
2018-01-11T21:52:45.200Z,9.64
2018-01-11T21:55:13.551Z,9.43
2018-01-11T21:57:41.933Z,9.45
2018-01-11T22:00:10.280Z,9.67
2018-01-11T22:02:38.628Z,9.82
2018-01-11T22:05:07.383Z,9.91
2018-01-11T22:07:35.747Z,9.90
2018-01-11T22:10:04.118Z,9.69
2018-01-11T22:12:32.464Z,9.41
2018-01-11T22:15:00.892Z,9.53
2018-01-11T22:17:29.254Z,9.88
2018-01-11T22:19:57.654Z,9.16
2018-01-11T22:22:26.132Z,8.95
2018-01-11T22:24:54.569Z,8.44
2018-01-11T22:27:22.941Z,8.29
2018-01-11T22:29:51.854Z,8.23
2018-01-11T22:32:20.221Z,8.20
2018-01-11T22:34:48.559Z,8.40
2018-01-11T22:37:16.920Z,9.00
2018-01-11T22:39:45.274Z,8.96
2018-01-11T22:42:13.678Z,9.43
2018-01-11T22:44:42.153Z,9.49
2018-01-11T22:47:10.505Z,9.68
2018-01-11T22:49:38.916Z,9.61
2018-01-11T22:52:07.400Z,9.64
2018-01-11T22:54:35.752Z,9.70
2018-01-11T22:57:04.104Z,9.36
2018-01-11T22:59:32.604Z,9.08
2018-01-11T23:02:00.963Z,9.32
2018-01-11T23:04:29.712Z,9.36
2018-01-11T23:06:58.174Z,9.62
2018-01-11T23:09:26.685Z,9.46
2018-01-11T23:11:55.112Z,9.67
2018-01-11T23:14:23.518Z,9.85
2018-01-11T23:16:51.891Z,9.47
2018-01-11T23:19:20.247Z,9.66
2018-01-11T23:21:48.608Z,9.81
2018-01-11T23:24:17.436Z,9.71
2018-01-11T23:26:45.793Z,9.44
2018-01-11T23:29:14.156Z,9.58
2018-01-11T23:31:42.512Z,9.52
2018-01-11T23:34:10.854Z,9.67
2018-01-11T23:36:39.356Z,9.88
2018-01-11T23:39:07.816Z,9.46
2018-01-11T23:41:36.177Z,9.19
2018-01-11T23:44:04.576Z,9.65
2018-01-11T23:46:32.950Z,9.69
2018-01-11T23:49:01.298Z,9.64
2018-01-11T23:51:29.791Z,9.31
2018-01-11T23:53:58.196Z,8.96
2018-01-11T23:56:26.564Z,9.08
2018-01-11T23:58:54.932Z,9.03
